sensor_id;sensor_type;location;lat;lon;timestamp;P1;durP1;ratioP1;P2;durP2;ratioP2
71290;SDS011;59073;51.994;4.448;2023-05-16T00:00:55;4.36;;;2.74;;
71290;SDS011;59073;51.994;4.448;2023-05-16T00:03:22;4.47;;;2.83;;
71290;SDS011;59073;51.994;4.448;2023-05-16T00:05:48;3.47;;;2.25;;
71290;SDS011;59073;51.994;4.448;2023-05-16T00:08:14;4.46;;;2.93;;
71290;SDS011;59073;51.994;4.448;2023-05-16T00:10:40;3.72;;;2.46;;
71290;SDS011;59073;51.994;4.448;2023-05-16T00:13:05;4.68;;;3.09;;
71290;SDS011;59073;51.994;4.448;2023-05-16T00:15:31;3.87;;;2.53;;
71290;SDS011;59073;51.994;4.448;2023-05-16T00:17:57;4.02;;;2.63;;
71290;SDS011;59073;51.994;4.448;2023-05-16T00:20:26;3.83;;;2.50;;
71290;SDS011;59073;51.994;4.448;2023-05-16T00:22:52;3.98;;;2.60;;
71290;SDS011;59073;51.994;4.448;2023-05-16T00:25:18;3.87;;;2.51;;
71290;SDS011;59073;51.994;4.448;2023-05-16T00:27:44;5.21;;;3.33;;
71290;SDS011;59073;51.994;4.448;2023-05-16T00:30:11;4.26;;;2.77;;
71290;SDS011;59073;51.994;4.448;2023-05-16T00:32:36;3.99;;;2.58;;
71290;SDS011;59073;51.994;4.448;2023-05-16T00:35:02;4.37;;;2.82;;
71290;SDS011;59073;51.994;4.448;2023-05-16T00:37:28;3.54;;;2.31;;
71290;SDS011;59073;51.994;4.448;2023-05-16T00:39:53;4.24;;;2.76;;
71290;SDS011;59073;51.994;4.448;2023-05-16T00:42:19;3.95;;;2.60;;
71290;SDS011;59073;51.994;4.448;2023-05-16T00:44:45;4.17;;;2.75;;
71290;SDS011;59073;51.994;4.448;2023-05-16T00:47:11;4.46;;;2.89;;
71290;SDS011;59073;51.994;4.448;2023-05-16T00:49:37;4.64;;;2.96;;
71290;SDS011;59073;51.994;4.448;2023-05-16T00:52:02;4.36;;;2.79;;
71290;SDS011;59073;51.994;4.448;2023-05-16T00:54:28;3.27;;;2.11;;
71290;SDS011;59073;51.994;4.448;2023-05-16T00:56:54;4.04;;;2.63;;
71290;SDS011;59073;51.994;4.448;2023-05-16T00:59:24;3.70;;;2.42;;
71290;SDS011;59073;51.994;4.448;2023-05-16T01:01:50;3.29;;;2.17;;
71290;SDS011;59073;51.994;4.448;2023-05-16T01:04:16;4.06;;;2.71;;
71290;SDS011;59073;51.994;4.448;2023-05-16T01:06:43;4.16;;;2.73;;
71290;SDS011;59073;51.994;4.448;2023-05-16T01:09:09;3.85;;;2.51;;
71290;SDS011;59073;51.994;4.448;2023-05-16T01:11:45;3.48;;;2.25;;
71290;SDS011;59073;51.994;4.448;2023-05-16T01:14:19;3.72;;;2.47;;
71290;SDS011;59073;51.994;4.448;2023-05-16T01:17:18;4.11;;;2.74;;
71290;SDS011;59073;51.994;4.448;2023-05-16T01:25:31;3.50;;;2.33;;
71290;SDS011;59073;51.994;4.448;2023-05-16T01:28:10;2.87;;;1.88;;
71290;SDS011;59073;51.994;4.448;2023-05-16T01:30:39;3.97;;;2.58;;
71290;SDS011;59073;51.994;4.448;2023-05-16T01:33:08;3.23;;;2.13;;
71290;SDS011;59073;51.994;4.448;2023-05-16T01:35:36;3.37;;;2.27;;
71290;SDS011;59073;51.994;4.448;2023-05-16T01:38:15;3.31;;;2.22;;
71290;SDS011;59073;51.994;4.448;2023-05-16T01:43:17;3.23;;;2.22;;
71290;SDS011;59073;51.994;4.448;2023-05-16T01:45:50;3.40;;;2.28;;
71290;SDS011;59073;51.994;4.448;2023-05-16T01:48:26;3.40;;;2.26;;
71290;SDS011;59073;51.994;4.448;2023-05-16T01:50:59;3.12;;;2.07;;
71290;SDS011;59073;51.994;4.448;2023-05-16T01:53:28;2.96;;;1.95;;
71290;SDS011;59073;51.994;4.448;2023-05-16T01:56:00;3.43;;;2.24;;
71290;SDS011;59073;51.994;4.448;2023-05-16T01:58:27;4.09;;;2.63;;
71290;SDS011;59073;51.994;4.448;2023-05-16T02:01:00;3.49;;;2.26;;
71290;SDS011;59073;51.994;4.448;2023-05-16T02:03:28;3.59;;;2.32;;
71290;SDS011;59073;51.994;4.448;2023-05-16T02:05:54;3.73;;;2.44;;
71290;SDS011;59073;51.994;4.448;2023-05-16T02:08:20;3.45;;;2.25;;
71290;SDS011;59073;51.994;4.448;2023-05-16T02:10:45;4.51;;;2.91;;
71290;SDS011;59073;51.994;4.448;2023-05-16T02:13:11;4.27;;;2.72;;
71290;SDS011;59073;51.994;4.448;2023-05-16T02:15:36;3.47;;;2.23;;
71290;SDS011;59073;51.994;4.448;2023-05-16T02:18:02;3.07;;;1.98;;
71290;SDS011;59073;51.994;4.448;2023-05-16T02:20:27;3.57;;;2.29;;
71290;SDS011;59073;51.994;4.448;2023-05-16T02:22:53;4.39;;;2.80;;
71290;SDS011;59073;51.994;4.448;2023-05-16T02:25:18;3.24;;;2.06;;
71290;SDS011;59073;51.994;4.448;2023-05-16T02:27:44;3.44;;;2.23;;
71290;SDS011;59073;51.994;4.448;2023-05-16T02:30:09;3.19;;;2.07;;
71290;SDS011;59073;51.994;4.448;2023-05-16T02:32:37;3.56;;;2.33;;
71290;SDS011;59073;51.994;4.448;2023-05-16T02:35:03;4.29;;;2.83;;
71290;SDS011;59073;51.994;4.448;2023-05-16T02:37:29;2.90;;;1.96;;
71290;SDS011;59073;51.994;4.448;2023-05-16T02:39:54;3.24;;;2.19;;
71290;SDS011;59073;51.994;4.448;2023-05-16T02:42:20;3.11;;;2.11;;
71290;SDS011;59073;51.994;4.448;2023-05-16T02:44:45;3.38;;;2.28;;
71290;SDS011;59073;51.994;4.448;2023-05-16T02:47:11;2.88;;;1.91;;
71290;SDS011;59073;51.994;4.448;2023-05-16T02:49:36;2.74;;;1.80;;
71290;SDS011;59073;51.994;4.448;2023-05-16T02:52:01;4.08;;;2.65;;
71290;SDS011;59073;51.994;4.448;2023-05-16T02:54:27;3.14;;;2.02;;
71290;SDS011;59073;51.994;4.448;2023-05-16T02:56:52;3.73;;;2.41;;
71290;SDS011;59073;51.994;4.448;2023-05-16T02:59:18;3.25;;;2.13;;
71290;SDS011;59073;51.994;4.448;2023-05-16T03:01:44;3.09;;;2.01;;
71290;SDS011;59073;51.994;4.448;2023-05-16T03:04:09;2.85;;;1.91;;
71290;SDS011;59073;51.994;4.448;2023-05-16T03:06:35;2.56;;;1.77;;
71290;SDS011;59073;51.994;4.448;2023-05-16T03:09:00;2.85;;;1.94;;
71290;SDS011;59073;51.994;4.448;2023-05-16T03:11:26;2.69;;;1.81;;
71290;SDS011;59073;51.994;4.448;2023-05-16T03:13:53;2.97;;;2.00;;
71290;SDS011;59073;51.994;4.448;2023-05-16T03:16:18;3.52;;;2.37;;
71290;SDS011;59073;51.994;4.448;2023-05-16T03:18:44;3.35;;;2.22;;
71290;SDS011;59073;51.994;4.448;2023-05-16T03:21:09;2.38;;;1.58;;
71290;SDS011;59073;51.994;4.448;2023-05-16T03:23:34;3.32;;;2.21;;
71290;SDS011;59073;51.994;4.448;2023-05-16T03:26:00;3.09;;;2.07;;
71290;SDS011;59073;51.994;4.448;2023-05-16T03:28:25;2.71;;;1.84;;
71290;SDS011;59073;51.994;4.448;2023-05-16T03:30:51;2.84;;;1.91;;
71290;SDS011;59073;51.994;4.448;2023-05-16T03:33:17;4.25;;;2.83;;
71290;SDS011;59073;51.994;4.448;2023-05-16T03:35:43;3.11;;;2.08;;
71290;SDS011;59073;51.994;4.448;2023-05-16T03:38:09;3.52;;;2.35;;
71290;SDS011;59073;51.994;4.448;2023-05-16T03:40:34;3.23;;;2.17;;
71290;SDS011;59073;51.994;4.448;2023-05-16T03:43:00;2.99;;;2.04;;
71290;SDS011;59073;51.994;4.448;2023-05-16T03:45:25;3.69;;;2.50;;
71290;SDS011;59073;51.994;4.448;2023-05-16T03:47:51;2.42;;;1.64;;
71290;SDS011;59073;51.994;4.448;2023-05-16T03:50:16;2.59;;;1.77;;
71290;SDS011;59073;51.994;4.448;2023-05-16T03:52:42;3.26;;;2.24;;
71290;SDS011;59073;51.994;4.448;2023-05-16T03:55:08;2.80;;;1.93;;
71290;SDS011;59073;51.994;4.448;2023-05-16T03:57:35;2.54;;;1.75;;
71290;SDS011;59073;51.994;4.448;2023-05-16T04:00:02;3.16;;;2.14;;
71290;SDS011;59073;51.994;4.448;2023-05-16T04:02:31;3.29;;;2.24;;
71290;SDS011;59073;51.994;4.448;2023-05-16T04:04:57;3.47;;;2.36;;
71290;SDS011;59073;51.994;4.448;2023-05-16T04:07:22;3.04;;;2.04;;
71290;SDS011;59073;51.994;4.448;2023-05-16T04:09:47;3.47;;;2.29;;
71290;SDS011;59073;51.994;4.448;2023-05-16T04:12:13;2.69;;;1.77;;
71290;SDS011;59073;51.994;4.448;2023-05-16T04:14:38;2.95;;;1.93;;
71290;SDS011;59073;51.994;4.448;2023-05-16T04:17:04;2.91;;;1.91;;
71290;SDS011;59073;51.994;4.448;2023-05-16T04:19:29;3.03;;;2.00;;
71290;SDS011;59073;51.994;4.448;2023-05-16T04:21:55;2.70;;;1.82;;
71290;SDS011;59073;51.994;4.448;2023-05-16T04:24:20;2.61;;;1.78;;
71290;SDS011;59073;51.994;4.448;2023-05-16T04:26:50;3.33;;;2.27;;
71290;SDS011;59073;51.994;4.448;2023-05-16T04:29:16;3.12;;;2.10;;
71290;SDS011;59073;51.994;4.448;2023-05-16T04:31:41;2.75;;;1.85;;
71290;SDS011;59073;51.994;4.448;2023-05-16T04:34:06;2.82;;;1.90;;
71290;SDS011;59073;51.994;4.448;2023-05-16T04:36:32;2.64;;;1.77;;
71290;SDS011;59073;51.994;4.448;2023-05-16T04:38:59;2.83;;;1.89;;
71290;SDS011;59073;51.994;4.448;2023-05-16T04:41:25;2.60;;;1.73;;
71290;SDS011;59073;51.994;4.448;2023-05-16T04:43:50;2.60;;;1.71;;
71290;SDS011;59073;51.994;4.448;2023-05-16T04:46:16;2.91;;;1.91;;
71290;SDS011;59073;51.994;4.448;2023-05-16T04:48:41;2.41;;;1.57;;
71290;SDS011;59073;51.994;4.448;2023-05-16T04:51:06;2.51;;;1.64;;
71290;SDS011;59073;51.994;4.448;2023-05-16T04:53:32;2.61;;;1.70;;
71290;SDS011;59073;51.994;4.448;2023-05-16T04:55:58;2.39;;;1.56;;
71290;SDS011;59073;51.994;4.448;2023-05-16T04:58:24;2.78;;;1.83;;
71290;SDS011;59073;51.994;4.448;2023-05-16T05:00:50;2.82;;;1.87;;
71290;SDS011;59073;51.994;4.448;2023-05-16T05:03:16;3.23;;;2.11;;
71290;SDS011;59073;51.994;4.448;2023-05-16T05:05:42;3.16;;;2.05;;
71290;SDS011;59073;51.994;4.448;2023-05-16T05:08:08;3.10;;;2.01;;
71290;SDS011;59073;51.994;4.448;2023-05-16T05:10:34;2.60;;;1.68;;
71290;SDS011;59073;51.994;4.448;2023-05-16T05:13:00;2.32;;;1.50;;
71290;SDS011;59073;51.994;4.448;2023-05-16T05:15:26;2.51;;;1.61;;
71290;SDS011;59073;51.994;4.448;2023-05-16T05:17:51;2.32;;;1.47;;
71290;SDS011;59073;51.994;4.448;2023-05-16T05:20:17;2.93;;;1.85;;
71290;SDS011;59073;51.994;4.448;2023-05-16T05:22:42;3.04;;;1.91;;
71290;SDS011;59073;51.994;4.448;2023-05-16T05:25:08;2.71;;;1.70;;
71290;SDS011;59073;51.994;4.448;2023-05-16T05:27:33;2.77;;;1.73;;
71290;SDS011;59073;51.994;4.448;2023-05-16T05:29:59;3.11;;;1.96;;
71290;SDS011;59073;51.994;4.448;2023-05-16T05:32:25;3.09;;;1.96;;
71290;SDS011;59073;51.994;4.448;2023-05-16T05:34:50;2.90;;;1.83;;
71290;SDS011;59073;51.994;4.448;2023-05-16T05:37:16;2.82;;;1.80;;
71290;SDS011;59073;51.994;4.448;2023-05-16T05:39:42;2.88;;;1.88;;
71290;SDS011;59073;51.994;4.448;2023-05-16T05:42:07;2.60;;;1.72;;
71290;SDS011;59073;51.994;4.448;2023-05-16T05:44:33;2.54;;;1.66;;
71290;SDS011;59073;51.994;4.448;2023-05-16T05:46:58;3.16;;;2.04;;
71290;SDS011;59073;51.994;4.448;2023-05-16T05:49:25;3.10;;;1.98;;
71290;SDS011;59073;51.994;4.448;2023-05-16T05:51:51;2.53;;;1.60;;
71290;SDS011;59073;51.994;4.448;2023-05-16T05:54:17;2.16;;;1.36;;
71290;SDS011;59073;51.994;4.448;2023-05-16T05:56:43;2.55;;;1.59;;
71290;SDS011;59073;51.994;4.448;2023-05-16T05:59:10;4.04;;;2.53;;
71290;SDS011;59073;51.994;4.448;2023-05-16T06:01:35;2.84;;;1.78;;
71290;SDS011;59073;51.994;4.448;2023-05-16T06:04:01;2.28;;;1.45;;
71290;SDS011;59073;51.994;4.448;2023-05-16T06:06:27;3.30;;;2.10;;
71290;SDS011;59073;51.994;4.448;2023-05-16T06:08:53;2.59;;;1.66;;
71290;SDS011;59073;51.994;4.448;2023-05-16T06:11:19;2.41;;;1.56;;
71290;SDS011;59073;51.994;4.448;2023-05-16T06:13:45;3.08;;;2.00;;
71290;SDS011;59073;51.994;4.448;2023-05-16T06:16:11;2.68;;;1.72;;
71290;SDS011;59073;51.994;4.448;2023-05-16T06:18:36;3.24;;;2.10;;
71290;SDS011;59073;51.994;4.448;2023-05-16T06:21:01;2.75;;;1.75;;
71290;SDS011;59073;51.994;4.448;2023-05-16T06:23:27;3.27;;;2.06;;
71290;SDS011;59073;51.994;4.448;2023-05-16T06:25:53;2.76;;;1.76;;
71290;SDS011;59073;51.994;4.448;2023-05-16T06:28:19;3.00;;;1.92;;
71290;SDS011;59073;51.994;4.448;2023-05-16T06:30:44;2.33;;;1.48;;
71290;SDS011;59073;51.994;4.448;2023-05-16T06:33:12;2.48;;;1.60;;
71290;SDS011;59073;51.994;4.448;2023-05-16T06:35:38;2.56;;;1.66;;
71290;SDS011;59073;51.994;4.448;2023-05-16T06:38:04;2.25;;;1.46;;
71290;SDS011;59073;51.994;4.448;2023-05-16T06:40:30;2.51;;;1.64;;
71290;SDS011;59073;51.994;4.448;2023-05-16T06:42:55;2.21;;;1.46;;
71290;SDS011;59073;51.994;4.448;2023-05-16T06:45:22;2.30;;;1.52;;
71290;SDS011;59073;51.994;4.448;2023-05-16T06:47:48;2.23;;;1.48;;
71290;SDS011;59073;51.994;4.448;2023-05-16T06:50:13;2.42;;;1.58;;
71290;SDS011;59073;51.994;4.448;2023-05-16T06:52:39;2.48;;;1.65;;
71290;SDS011;59073;51.994;4.448;2023-05-16T06:55:04;2.64;;;1.74;;
71290;SDS011;59073;51.994;4.448;2023-05-16T06:57:30;2.88;;;1.86;;
71290;SDS011;59073;51.994;4.448;2023-05-16T06:59:55;3.03;;;1.95;;
71290;SDS011;59073;51.994;4.448;2023-05-16T07:02:21;2.60;;;1.66;;
71290;SDS011;59073;51.994;4.448;2023-05-16T07:04:46;2.50;;;1.60;;
71290;SDS011;59073;51.994;4.448;2023-05-16T07:07:11;2.86;;;1.82;;
71290;SDS011;59073;51.994;4.448;2023-05-16T07:09:37;2.11;;;1.38;;
71290;SDS011;59073;51.994;4.448;2023-05-16T07:12:03;1.62;;;1.07;;
71290;SDS011;59073;51.994;4.448;2023-05-16T07:14:29;2.17;;;1.43;;
71290;SDS011;59073;51.994;4.448;2023-05-16T07:16:55;2.33;;;1.52;;
71290;SDS011;59073;51.994;4.448;2023-05-16T07:19:20;2.36;;;1.53;;
71290;SDS011;59073;51.994;4.448;2023-05-16T07:21:45;2.54;;;1.64;;
71290;SDS011;59073;51.994;4.448;2023-05-16T07:24:11;2.16;;;1.42;;
71290;SDS011;59073;51.994;4.448;2023-05-16T07:26:36;1.70;;;1.13;;
71290;SDS011;59073;51.994;4.448;2023-05-16T07:29:02;2.11;;;1.39;;
71290;SDS011;59073;51.994;4.448;2023-05-16T07:31:28;2.32;;;1.52;;
71290;SDS011;59073;51.994;4.448;2023-05-16T07:33:54;1.90;;;1.25;;
71290;SDS011;59073;51.994;4.448;2023-05-16T07:36:19;2.56;;;1.69;;
71290;SDS011;59073;51.994;4.448;2023-05-16T07:38:45;1.94;;;1.29;;
71290;SDS011;59073;51.994;4.448;2023-05-16T07:41:10;1.90;;;1.27;;
71290;SDS011;59073;51.994;4.448;2023-05-16T07:43:36;2.33;;;1.53;;
71290;SDS011;59073;51.994;4.448;2023-05-16T07:46:02;2.14;;;1.40;;
71290;SDS011;59073;51.994;4.448;2023-05-16T07:48:27;2.23;;;1.44;;
71290;SDS011;59073;51.994;4.448;2023-05-16T07:50:53;2.16;;;1.39;;
71290;SDS011;59073;51.994;4.448;2023-05-16T07:53:19;1.85;;;1.19;;
71290;SDS011;59073;51.994;4.448;2023-05-16T07:55:45;2.03;;;1.31;;
71290;SDS011;59073;51.994;4.448;2023-05-16T07:58:11;1.82;;;1.19;;
71290;SDS011;59073;51.994;4.448;2023-05-16T08:00:36;2.52;;;1.66;;
71290;SDS011;59073;51.994;4.448;2023-05-16T08:03:02;1.96;;;1.28;;
71290;SDS011;59073;51.994;4.448;2023-05-16T08:05:28;2.77;;;1.79;;
71290;SDS011;59073;51.994;4.448;2023-05-16T08:07:53;1.93;;;1.25;;
71290;SDS011;59073;51.994;4.448;2023-05-16T08:10:19;2.36;;;1.54;;
71290;SDS011;59073;51.994;4.448;2023-05-16T08:12:44;2.03;;;1.33;;
71290;SDS011;59073;51.994;4.448;2023-05-16T08:15:10;2.19;;;1.45;;
71290;SDS011;59073;51.994;4.448;2023-05-16T08:17:35;1.95;;;1.31;;
71290;SDS011;59073;51.994;4.448;2023-05-16T08:20:02;2.24;;;1.51;;
71290;SDS011;59073;51.994;4.448;2023-05-16T08:22:28;1.93;;;1.28;;
71290;SDS011;59073;51.994;4.448;2023-05-16T08:24:53;1.77;;;1.18;;
71290;SDS011;59073;51.994;4.448;2023-05-16T08:27:22;2.21;;;1.47;;
71290;SDS011;59073;51.994;4.448;2023-05-16T08:29:48;1.82;;;1.21;;
71290;SDS011;59073;51.994;4.448;2023-05-16T08:32:13;2.33;;;1.56;;
71290;SDS011;59073;51.994;4.448;2023-05-16T08:34:40;2.12;;;1.40;;
71290;SDS011;59073;51.994;4.448;2023-05-16T08:37:05;1.64;;;1.09;;
71290;SDS011;59073;51.994;4.448;2023-05-16T08:39:30;1.62;;;1.08;;
71290;SDS011;59073;51.994;4.448;2023-05-16T08:41:56;1.95;;;1.31;;
71290;SDS011;59073;51.994;4.448;2023-05-16T08:44:23;1.75;;;1.17;;
71290;SDS011;59073;51.994;4.448;2023-05-16T08:46:52;2.22;;;1.47;;
71290;SDS011;59073;51.994;4.448;2023-05-16T08:49:19;1.47;;;0.97;;
71290;SDS011;59073;51.994;4.448;2023-05-16T08:51:46;2.32;;;1.52;;
71290;SDS011;59073;51.994;4.448;2023-05-16T08:54:14;2.34;;;1.51;;
71290;SDS011;59073;51.994;4.448;2023-05-16T08:56:41;2.29;;;1.50;;
71290;SDS011;59073;51.994;4.448;2023-05-16T08:59:06;2.01;;;1.32;;
71290;SDS011;59073;51.994;4.448;2023-05-16T09:01:33;2.46;;;1.64;;
71290;SDS011;59073;51.994;4.448;2023-05-16T09:04:00;2.02;;;1.35;;
71290;SDS011;59073;51.994;4.448;2023-05-16T09:06:28;2.15;;;1.44;;
71290;SDS011;59073;51.994;4.448;2023-05-16T09:08:53;1.52;;;1.02;;
71290;SDS011;59073;51.994;4.448;2023-05-16T09:11:19;1.78;;;1.20;;
71290;SDS011;59073;51.994;4.448;2023-05-16T09:13:45;1.59;;;1.06;;
71290;SDS011;59073;51.994;4.448;2023-05-16T09:16:13;1.97;;;1.31;;
71290;SDS011;59073;51.994;4.448;2023-05-16T09:18:41;2.03;;;1.35;;
71290;SDS011;59073;51.994;4.448;2023-05-16T09:21:09;2.21;;;1.46;;
71290;SDS011;59073;51.994;4.448;2023-05-16T09:23:35;2.55;;;1.72;;
71290;SDS011;59073;51.994;4.448;2023-05-16T09:26:01;1.75;;;1.19;;
71290;SDS011;59073;51.994;4.448;2023-05-16T09:28:29;2.12;;;1.45;;
71290;SDS011;59073;51.994;4.448;2023-05-16T09:30:55;1.67;;;1.15;;
71290;SDS011;59073;51.994;4.448;2023-05-16T09:33:25;1.94;;;1.32;;
71290;SDS011;59073;51.994;4.448;2023-05-16T09:35:59;1.91;;;1.31;;
71290;SDS011;59073;51.994;4.448;2023-05-16T09:38:25;1.79;;;1.21;;
71290;SDS011;59073;51.994;4.448;2023-05-16T09:40:52;2.16;;;1.43;;
71290;SDS011;59073;51.994;4.448;2023-05-16T09:43:20;1.66;;;1.09;;
71290;SDS011;59073;51.994;4.448;2023-05-16T09:45:50;1.87;;;1.23;;
71290;SDS011;59073;51.994;4.448;2023-05-16T09:48:17;1.60;;;1.05;;
71290;SDS011;59073;51.994;4.448;2023-05-16T09:50:52;2.09;;;1.38;;
71290;SDS011;59073;51.994;4.448;2023-05-16T09:53:28;1.99;;;1.31;;
71290;SDS011;59073;51.994;4.448;2023-05-16T09:56:02;1.35;;;0.88;;
71290;SDS011;59073;51.994;4.448;2023-05-16T09:58:29;1.90;;;1.24;;
71290;SDS011;59073;51.994;4.448;2023-05-16T10:00:57;2.22;;;1.44;;
71290;SDS011;59073;51.994;4.448;2023-05-16T10:03:24;2.08;;;1.33;;
71290;SDS011;59073;51.994;4.448;2023-05-16T10:05:51;1.99;;;1.26;;
71290;SDS011;59073;51.994;4.448;2023-05-16T10:08:19;2.59;;;1.64;;
71290;SDS011;59073;51.994;4.448;2023-05-16T10:10:53;1.74;;;1.12;;
71290;SDS011;59073;51.994;4.448;2023-05-16T10:13:21;2.25;;;1.44;;
71290;SDS011;59073;51.994;4.448;2023-05-16T10:15:49;2.17;;;1.38;;
71290;SDS011;59073;51.994;4.448;2023-05-16T10:18:19;1.79;;;1.15;;
71290;SDS011;59073;51.994;4.448;2023-05-16T10:20:48;2.35;;;1.50;;
71290;SDS011;59073;51.994;4.448;2023-05-16T10:23:17;1.89;;;1.20;;
71290;SDS011;59073;51.994;4.448;2023-05-16T10:25:45;2.72;;;1.73;;
71290;SDS011;59073;51.994;4.448;2023-05-16T10:28:12;2.31;;;1.46;;
71290;SDS011;59073;51.994;4.448;2023-05-16T10:30:39;2.35;;;1.51;;
71290;SDS011;59073;51.994;4.448;2023-05-16T10:33:09;2.27;;;1.46;;
71290;SDS011;59073;51.994;4.448;2023-05-16T10:35:36;1.77;;;1.15;;
71290;SDS011;59073;51.994;4.448;2023-05-16T10:38:03;1.72;;;1.12;;
71290;SDS011;59073;51.994;4.448;2023-05-16T10:40:30;2.17;;;1.42;;
71290;SDS011;59073;51.994;4.448;2023-05-16T10:43:00;1.79;;;1.18;;
71290;SDS011;59073;51.994;4.448;2023-05-16T10:45:26;1.95;;;1.29;;
71290;SDS011;59073;51.994;4.448;2023-05-16T10:50:34;1.92;;;1.29;;
71290;SDS011;59073;51.994;4.448;2023-05-16T10:55:44;1.58;;;1.08;;
71290;SDS011;59073;51.994;4.448;2023-05-16T11:06:24;1.77;;;1.21;;
71290;SDS011;59073;51.994;4.448;2023-05-16T11:17:08;1.91;;;1.29;;
71290;SDS011;59073;51.994;4.448;2023-05-16T11:19:52;2.32;;;1.57;;
71290;SDS011;59073;51.994;4.448;2023-05-16T11:22:28;1.70;;;1.13;;
71290;SDS011;59073;51.994;4.448;2023-05-16T11:25:04;1.59;;;1.05;;
71290;SDS011;59073;51.994;4.448;2023-05-16T11:32:35;1.62;;;1.06;;
71290;SDS011;59073;51.994;4.448;2023-05-16T11:35:07;1.99;;;1.29;;
71290;SDS011;59073;51.994;4.448;2023-05-16T11:37:38;2.10;;;1.36;;
71290;SDS011;59073;51.994;4.448;2023-05-16T11:40:04;1.56;;;1.00;;
71290;SDS011;59073;51.994;4.448;2023-05-16T11:42:42;1.68;;;1.08;;
71290;SDS011;59073;51.994;4.448;2023-05-16T11:45:09;1.82;;;1.17;;
71290;SDS011;59073;51.994;4.448;2023-05-16T11:47:39;1.92;;;1.24;;
71290;SDS011;59073;51.994;4.448;2023-05-16T11:52:45;2.83;;;1.83;;
71290;SDS011;59073;51.994;4.448;2023-05-16T11:55:12;2.21;;;1.43;;
71290;SDS011;59073;51.994;4.448;2023-05-16T11:57:40;1.82;;;1.19;;
71290;SDS011;59073;51.994;4.448;2023-05-16T12:00:15;1.96;;;1.26;;
71290;SDS011;59073;51.994;4.448;2023-05-16T12:02:45;1.86;;;1.20;;
71290;SDS011;59073;51.994;4.448;2023-05-16T12:05:12;2.07;;;1.33;;
71290;SDS011;59073;51.994;4.448;2023-05-16T12:07:39;1.84;;;1.17;;
71290;SDS011;59073;51.994;4.448;2023-05-16T12:10:07;2.17;;;1.39;;
71290;SDS011;59073;51.994;4.448;2023-05-16T12:12:34;2.30;;;1.47;;
71290;SDS011;59073;51.994;4.448;2023-05-16T12:15:02;2.73;;;1.74;;
71290;SDS011;59073;51.994;4.448;2023-05-16T12:17:30;2.24;;;1.41;;
71290;SDS011;59073;51.994;4.448;2023-05-16T12:19:57;1.83;;;1.14;;
71290;SDS011;59073;51.994;4.448;2023-05-16T12:22:24;2.08;;;1.30;;
71290;SDS011;59073;51.994;4.448;2023-05-16T12:24:50;2.30;;;1.44;;
71290;SDS011;59073;51.994;4.448;2023-05-16T12:27:21;2.45;;;1.54;;
71290;SDS011;59073;51.994;4.448;2023-05-16T12:29:48;1.87;;;1.18;;
71290;SDS011;59073;51.994;4.448;2023-05-16T12:32:17;1.82;;;1.16;;
71290;SDS011;59073;51.994;4.448;2023-05-16T12:34:48;2.02;;;1.29;;
71290;SDS011;59073;51.994;4.448;2023-05-16T12:37:15;2.06;;;1.33;;
71290;SDS011;59073;51.994;4.448;2023-05-16T12:39:41;1.66;;;1.08;;
71290;SDS011;59073;51.994;4.448;2023-05-16T12:42:06;1.94;;;1.26;;
71290;SDS011;59073;51.994;4.448;2023-05-16T12:44:33;1.67;;;1.09;;
71290;SDS011;59073;51.994;4.448;2023-05-16T12:47:00;1.67;;;1.10;;
71290;SDS011;59073;51.994;4.448;2023-05-16T12:49:26;2.01;;;1.33;;
71290;SDS011;59073;51.994;4.448;2023-05-16T12:51:55;1.95;;;1.31;;
71290;SDS011;59073;51.994;4.448;2023-05-16T12:54:23;1.55;;;1.04;;
71290;SDS011;59073;51.994;4.448;2023-05-16T12:56:48;1.88;;;1.28;;
71290;SDS011;59073;51.994;4.448;2023-05-16T12:59:14;1.35;;;0.93;;
71290;SDS011;59073;51.994;4.448;2023-05-16T13:01:39;1.31;;;0.90;;
71290;SDS011;59073;51.994;4.448;2023-05-16T13:04:06;1.71;;;1.16;;
71290;SDS011;59073;51.994;4.448;2023-05-16T13:06:32;1.74;;;1.18;;
71290;SDS011;59073;51.994;4.448;2023-05-16T13:08:58;1.66;;;1.13;;
71290;SDS011;59073;51.994;4.448;2023-05-16T13:11:24;1.10;;;0.75;;
71290;SDS011;59073;51.994;4.448;2023-05-16T13:13:50;1.37;;;0.95;;
71290;SDS011;59073;51.994;4.448;2023-05-16T13:16:16;1.65;;;1.16;;
71290;SDS011;59073;51.994;4.448;2023-05-16T13:18:42;1.79;;;1.26;;
71290;SDS011;59073;51.994;4.448;2023-05-16T13:21:07;1.65;;;1.16;;
71290;SDS011;59073;51.994;4.448;2023-05-16T13:23:33;1.34;;;0.94;;
71290;SDS011;59073;51.994;4.448;2023-05-16T13:25:58;1.55;;;1.08;;
71290;SDS011;59073;51.994;4.448;2023-05-16T13:28:24;1.71;;;1.18;;
71290;SDS011;59073;51.994;4.448;2023-05-16T13:30:49;1.99;;;1.35;;
71290;SDS011;59073;51.994;4.448;2023-05-16T13:33:15;1.45;;;0.99;;
71290;SDS011;59073;51.994;4.448;2023-05-16T13:35:41;2.01;;;1.36;;
71290;SDS011;59073;51.994;4.448;2023-05-16T13:38:10;1.57;;;1.06;;
71290;SDS011;59073;51.994;4.448;2023-05-16T13:40:35;1.60;;;1.08;;
71290;SDS011;59073;51.994;4.448;2023-05-16T13:43:01;1.80;;;1.19;;
71290;SDS011;59073;51.994;4.448;2023-05-16T13:45:27;1.59;;;1.04;;
71290;SDS011;59073;51.994;4.448;2023-05-16T13:47:53;1.71;;;1.11;;
71290;SDS011;59073;51.994;4.448;2023-05-16T13:50:18;2.29;;;1.48;;
71290;SDS011;59073;51.994;4.448;2023-05-16T13:52:44;2.10;;;1.37;;
71290;SDS011;59073;51.994;4.448;2023-05-16T13:55:11;1.89;;;1.24;;
71290;SDS011;59073;51.994;4.448;2023-05-16T13:57:36;1.86;;;1.22;;
71290;SDS011;59073;51.994;4.448;2023-05-16T14:00:02;1.44;;;0.95;;
71290;SDS011;59073;51.994;4.448;2023-05-16T14:02:36;1.47;;;0.98;;
71290;SDS011;59073;51.994;4.448;2023-05-16T14:05:02;1.65;;;1.12;;
71290;SDS011;59073;51.994;4.448;2023-05-16T14:07:28;1.65;;;1.14;;
71290;SDS011;59073;51.994;4.448;2023-05-16T14:09:53;1.50;;;1.05;;
71290;SDS011;59073;51.994;4.448;2023-05-16T14:12:18;1.64;;;1.14;;
71290;SDS011;59073;51.994;4.448;2023-05-16T14:14:44;1.49;;;1.05;;
71290;SDS011;59073;51.994;4.448;2023-05-16T14:17:09;1.51;;;1.08;;
71290;SDS011;59073;51.994;4.448;2023-05-16T14:19:35;1.41;;;1.03;;
71290;SDS011;59073;51.994;4.448;2023-05-16T14:22:00;1.30;;;0.96;;
71290;SDS011;59073;51.994;4.448;2023-05-16T14:24:26;1.49;;;1.11;;
71290;SDS011;59073;51.994;4.448;2023-05-16T14:26:51;1.43;;;1.06;;
71290;SDS011;59073;51.994;4.448;2023-05-16T14:29:19;1.29;;;0.95;;
71290;SDS011;59073;51.994;4.448;2023-05-16T14:31:45;0.82;;;0.61;;
71290;SDS011;59073;51.994;4.448;2023-05-16T14:34:11;1.11;;;0.82;;
71290;SDS011;59073;51.994;4.448;2023-05-16T14:36:36;0.97;;;0.72;;
71290;SDS011;59073;51.994;4.448;2023-05-16T14:39:02;1.34;;;1.00;;
71290;SDS011;59073;51.994;4.448;2023-05-16T14:41:28;1.00;;;0.73;;
71290;SDS011;59073;51.994;4.448;2023-05-16T14:43:53;1.20;;;0.88;;
71290;SDS011;59073;51.994;4.448;2023-05-16T14:46:20;1.17;;;0.86;;
71290;SDS011;59073;51.994;4.448;2023-05-16T14:48:45;0.98;;;0.73;;
71290;SDS011;59073;51.994;4.448;2023-05-16T14:51:11;1.21;;;0.90;;
71290;SDS011;59073;51.994;4.448;2023-05-16T14:53:36;1.14;;;0.87;;
71290;SDS011;59073;51.994;4.448;2023-05-16T14:56:02;1.12;;;0.87;;
71290;SDS011;59073;51.994;4.448;2023-05-16T14:58:28;1.17;;;0.92;;
71290;SDS011;59073;51.994;4.448;2023-05-16T15:00:54;1.73;;;1.34;;
71290;SDS011;59073;51.994;4.448;2023-05-16T15:03:19;1.49;;;1.16;;
71290;SDS011;59073;51.994;4.448;2023-05-16T15:05:45;1.38;;;1.12;;
71290;SDS011;59073;51.994;4.448;2023-05-16T15:08:10;1.26;;;1.06;;
71290;SDS011;59073;51.994;4.448;2023-05-16T15:10:36;1.22;;;1.04;;
71290;SDS011;59073;51.994;4.448;2023-05-16T15:13:01;1.14;;;0.97;;
71290;SDS011;59073;51.994;4.448;2023-05-16T15:15:27;1.49;;;1.26;;
71290;SDS011;59073;51.994;4.448;2023-05-16T15:17:52;1.29;;;1.12;;
71290;SDS011;59073;51.994;4.448;2023-05-16T15:20:18;1.71;;;1.52;;
71290;SDS011;59073;51.994;4.448;2023-05-16T15:22:44;1.98;;;1.78;;